ADDS METAR Data INFO
IDs: Format: Raw Decoded Include TAF

Data at: 1317 UTC 11 Dec 2017

KJES 110503Z AUTO 00000KT 10SM CLR M01/M02 A3029 RMK AO2
KJES 110343Z AUTO 00000KT 10SM CLR 00/M01 A3029 RMK AO2
KJES 110303Z AUTO 00000KT 10SM CLR 01/M01 A3029 RMK AO2
KJES 110003Z AUTO 00000KT 10SM CLR 04/01 A3027 RMK AO2
KJES 102343Z AUTO 00000KT 10SM CLR 04/01 A3027 RMK AO2
KJES 102323Z AUTO 00000KT 10SM CLR 05/01 A3026 RMK AO2
KJES 102223Z AUTO 00000KT 10SM CLR 09/M01 A3026 RMK AO2
KJES 102043Z AUTO 00000KT 10SM CLR 11/M05 A3025 RMK AO2
KJES 101823Z AUTO 29006KT 10SM CLR 10/M04 A3027 RMK AO2
KJES 101222Z AUTO 00000KT 10SM CLR 00/M02 A3030 RMK AO2
KJES 101123Z AUTO 00000KT 10SM CLR 01/M02 A3028 RMK AO2
KJES 101003Z AUTO 31005KT 10SM CLR 01/M02 A3024 RMK AO2
KJES 100923Z AUTO 29004KT 10SM CLR 01/M02 A3023 RMK AO2
KJES 100823Z AUTO 29005KT 10SM CLR 02/M02 A3021 RMK AO2
KJES 100723Z AUTO 29004KT 10SM CLR 02/M02 A3020 RMK AO2
KJES 100503Z AUTO 27004KT 10SM CLR 03/M01 A3019 RMK AO2